sensor_id;sensor_type;location;lat;lon;timestamp;temperature;humidity
6429;DHT22;3247;48.946;10.220;2023-03-08T00:02:14;2.50;99.90
6429;DHT22;3247;48.946;10.220;2023-03-08T00:04:40;2.50;99.90
6429;DHT22;3247;48.946;10.220;2023-03-08T00:07:05;2.50;99.90
6429;DHT22;3247;48.946;10.220;2023-03-08T00:09:30;2.50;99.90
6429;DHT22;3247;48.946;10.220;2023-03-08T00:11:56;2.60;99.90
6429;DHT22;3247;48.946;10.220;2023-03-08T00:14:21;2.50;99.90
6429;DHT22;3247;48.946;10.220;2023-03-08T00:16:47;2.50;99.90
6429;DHT22;3247;48.946;10.220;2023-03-08T00:19:12;2.50;99.90
6429;DHT22;3247;48.946;10.220;2023-03-08T00:21:43;2.50;99.90
6429;DHT22;3247;48.946;10.220;2023-03-08T00:24:10;2.50;99.90
6429;DHT22;3247;48.946;10.220;2023-03-08T00:26:36;2.60;99.90
6429;DHT22;3247;48.946;10.220;2023-03-08T00:29:01;2.50;99.90
6429;DHT22;3247;48.946;10.220;2023-03-08T00:31:26;2.50;99.90
6429;DHT22;3247;48.946;10.220;2023-03-08T00:33:52;2.50;99.90
6429;DHT22;3247;48.946;10.220;2023-03-08T00:36:19;2.50;99.90
6429;DHT22;3247;48.946;10.220;2023-03-08T00:38:44;2.50;99.90
6429;DHT22;3247;48.946;10.220;2023-03-08T00:41:10;2.50;99.90
6429;DHT22;3247;48.946;10.220;2023-03-08T00:43:36;2.50;99.90
6429;DHT22;3247;48.946;10.220;2023-03-08T00:46:02;3.00;99.90
6429;DHT22;3247;48.946;10.220;2023-03-08T00:48:27;2.40;99.90
6429;DHT22;3247;48.946;10.220;2023-03-08T00:50:53;2.50;99.90
6429;DHT22;3247;48.946;10.220;2023-03-08T00:53:18;2.50;99.90
6429;DHT22;3247;48.946;10.220;2023-03-08T00:55:47;2.50;99.90
6429;DHT22;3247;48.946;10.220;2023-03-08T00:58:13;2.40;99.90
6429;DHT22;3247;48.946;10.220;2023-03-08T01:00:38;2.40;99.90
6429;DHT22;3247;48.946;10.220;2023-03-08T01:03:04;2.50;99.90
6429;DHT22;3247;48.946;10.220;2023-03-08T01:05:29;2.40;99.90
6429;DHT22;3247;48.946;10.220;2023-03-08T01:07:55;2.40;99.90
6429;DHT22;3247;48.946;10.220;2023-03-08T01:10:20;2.40;99.90
6429;DHT22;3247;48.946;10.220;2023-03-08T01:12:46;2.40;99.90
6429;DHT22;3247;48.946;10.220;2023-03-08T01:15:11;2.40;99.90
6429;DHT22;3247;48.946;10.220;2023-03-08T01:17:36;2.50;99.90
6429;DHT22;3247;48.946;10.220;2023-03-08T01:20:02;2.50;99.90
6429;DHT22;3247;48.946;10.220;2023-03-08T01:22:29;2.50;99.90
6429;DHT22;3247;48.946;10.220;2023-03-08T01:24:54;2.50;99.90
6429;DHT22;3247;48.946;10.220;2023-03-08T01:27:20;2.50;99.90
6429;DHT22;3247;48.946;10.220;2023-03-08T01:29:45;2.50;99.90
6429;DHT22;3247;48.946;10.220;2023-03-08T01:32:11;2.50;99.90
6429;DHT22;3247;48.946;10.220;2023-03-08T01:34:36;2.50;99.90
6429;DHT22;3247;48.946;10.220;2023-03-08T01:37:02;2.50;99.90
6429;DHT22;3247;48.946;10.220;2023-03-08T01:39:27;2.60;99.90
6429;DHT22;3247;48.946;10.220;2023-03-08T01:41:53;2.60;99.90
6429;DHT22;3247;48.946;10.220;2023-03-08T01:44:19;2.50;99.90
6429;DHT22;3247;48.946;10.220;2023-03-08T01:46:46;2.50;99.90
6429;DHT22;3247;48.946;10.220;2023-03-08T01:49:13;2.40;99.90
6429;DHT22;3247;48.946;10.220;2023-03-08T01:54:13;2.30;99.90
6429;DHT22;3247;48.946;10.220;2023-03-08T01:56:39;2.20;99.90
6429;DHT22;3247;48.946;10.220;2023-03-08T01:59:04;2.20;99.90
6429;DHT22;3247;48.946;10.220;2023-03-08T02:01:31;2.20;99.90
6429;DHT22;3247;48.946;10.220;2023-03-08T02:03:57;2.10;99.90
6429;DHT22;3247;48.946;10.220;2023-03-08T02:06:23;2.20;99.90
6429;DHT22;3247;48.946;10.220;2023-03-08T02:08:48;2.20;99.90
6429;DHT22;3247;48.946;10.220;2023-03-08T02:11:14;2.20;99.90
6429;DHT22;3247;48.946;10.220;2023-03-08T02:13:41;2.20;99.90
6429;DHT22;3247;48.946;10.220;2023-03-08T02:16:07;2.20;99.90
6429;DHT22;3247;48.946;10.220;2023-03-08T02:18:33;2.20;99.90
6429;DHT22;3247;48.946;10.220;2023-03-08T02:20:59;2.10;99.90
6429;DHT22;3247;48.946;10.220;2023-03-08T02:23:25;2.10;99.90
6429;DHT22;3247;48.946;10.220;2023-03-08T02:25:51;2.10;99.90
6429;DHT22;3247;48.946;10.220;2023-03-08T02:28:18;2.10;99.90
6429;DHT22;3247;48.946;10.220;2023-03-08T02:30:44;2.00;99.90
6429;DHT22;3247;48.946;10.220;2023-03-08T02:33:09;2.00;99.90
6429;DHT22;3247;48.946;10.220;2023-03-08T02:35:35;2.00;99.90
6429;DHT22;3247;48.946;10.220;2023-03-08T02:38:02;2.00;99.90
6429;DHT22;3247;48.946;10.220;2023-03-08T02:40:28;1.90;99.90
6429;DHT22;3247;48.946;10.220;2023-03-08T02:42:53;1.90;99.90
6429;DHT22;3247;48.946;10.220;2023-03-08T02:45:21;1.80;99.90
6429;DHT22;3247;48.946;10.220;2023-03-08T02:47:46;1.80;99.90
6429;DHT22;3247;48.946;10.220;2023-03-08T02:50:17;1.80;99.90
6429;DHT22;3247;48.946;10.220;2023-03-08T02:52:42;1.80;99.90
6429;DHT22;3247;48.946;10.220;2023-03-08T02:55:08;1.70;99.90
6429;DHT22;3247;48.946;10.220;2023-03-08T02:57:33;1.70;99.90
6429;DHT22;3247;48.946;10.220;2023-03-08T02:59:59;1.70;99.90
6429;DHT22;3247;48.946;10.220;2023-03-08T03:02:24;1.60;99.90
6429;DHT22;3247;48.946;10.220;2023-03-08T03:04:50;1.50;99.90
6429;DHT22;3247;48.946;10.220;2023-03-08T03:07:15;1.40;99.90
6429;DHT22;3247;48.946;10.220;2023-03-08T03:09:41;1.40;99.90
6429;DHT22;3247;48.946;10.220;2023-03-08T03:12:06;1.30;99.90
6429;DHT22;3247;48.946;10.220;2023-03-08T03:14:32;1.30;99.90
6429;DHT22;3247;48.946;10.220;2023-03-08T03:16:57;1.20;99.90
6429;DHT22;3247;48.946;10.220;2023-03-08T03:19:23;1.10;99.90
6429;DHT22;3247;48.946;10.220;2023-03-08T03:21:51;1.10;99.90
6429;DHT22;3247;48.946;10.220;2023-03-08T03:24:16;1.10;99.90
6429;DHT22;3247;48.946;10.220;2023-03-08T03:26:42;1.10;99.90
6429;DHT22;3247;48.946;10.220;2023-03-08T03:29:07;1.10;99.90
6429;DHT22;3247;48.946;10.220;2023-03-08T03:31:33;1.10;99.90
6429;DHT22;3247;48.946;10.220;2023-03-08T03:33:58;1.10;99.90
6429;DHT22;3247;48.946;10.220;2023-03-08T03:36:24;1.20;99.90
6429;DHT22;3247;48.946;10.220;2023-03-08T03:38:49;1.10;99.90
6429;DHT22;3247;48.946;10.220;2023-03-08T03:41:16;1.10;99.90
6429;DHT22;3247;48.946;10.220;2023-03-08T03:43:42;1.10;99.90
6429;DHT22;3247;48.946;10.220;2023-03-08T03:46:09;1.10;99.90
6429;DHT22;3247;48.946;10.220;2023-03-08T03:48:36;1.10;99.90
6429;DHT22;3247;48.946;10.220;2023-03-08T03:51:03;1.10;99.90
6429;DHT22;3247;48.946;10.220;2023-03-08T03:53:29;1.30;99.90
6429;DHT22;3247;48.946;10.220;2023-03-08T03:56:01;1.20;99.90
6429;DHT22;3247;48.946;10.220;2023-03-08T03:58:28;1.20;99.90
6429;DHT22;3247;48.946;10.220;2023-03-08T04:00:53;1.30;99.90
6429;DHT22;3247;48.946;10.220;2023-03-08T04:03:20;1.20;99.90
6429;DHT22;3247;48.946;10.220;2023-03-08T04:05:46;1.30;99.90
6429;DHT22;3247;48.946;10.220;2023-03-08T04:08:11;1.20;99.90
6429;DHT22;3247;48.946;10.220;2023-03-08T04:10:37;1.20;99.90
6429;DHT22;3247;48.946;10.220;2023-03-08T04:13:02;1.20;99.90
6429;DHT22;3247;48.946;10.220;2023-03-08T04:15:28;1.30;99.90
6429;DHT22;3247;48.946;10.220;2023-03-08T04:17:53;1.30;99.90
6429;DHT22;3247;48.946;10.220;2023-03-08T04:20:22;1.20;99.90
6429;DHT22;3247;48.946;10.220;2023-03-08T04:22:47;1.20;99.90
6429;DHT22;3247;48.946;10.220;2023-03-08T04:25:13;1.20;99.90
6429;DHT22;3247;48.946;10.220;2023-03-08T04:27:38;1.20;99.90
6429;DHT22;3247;48.946;10.220;2023-03-08T04:30:04;1.20;99.90
6429;DHT22;3247;48.946;10.220;2023-03-08T04:32:30;1.10;99.90
6429;DHT22;3247;48.946;10.220;2023-03-08T04:34:56;1.10;99.90
6429;DHT22;3247;48.946;10.220;2023-03-08T04:37:22;1.00;99.90
6429;DHT22;3247;48.946;10.220;2023-03-08T04:39:47;0.90;99.90
6429;DHT22;3247;48.946;10.220;2023-03-08T04:42:13;0.90;99.90
6429;DHT22;3247;48.946;10.220;2023-03-08T04:44:38;0.80;99.90
6429;DHT22;3247;48.946;10.220;2023-03-08T04:47:03;0.70;99.90
6429;DHT22;3247;48.946;10.220;2023-03-08T04:49:29;0.70;99.90
6429;DHT22;3247;48.946;10.220;2023-03-08T04:51:58;0.60;99.90
6429;DHT22;3247;48.946;10.220;2023-03-08T04:54:23;0.50;99.90
6429;DHT22;3247;48.946;10.220;2023-03-08T04:56:48;0.60;99.90
6429;DHT22;3247;48.946;10.220;2023-03-08T04:59:14;0.40;99.90
6429;DHT22;3247;48.946;10.220;2023-03-08T05:01:39;0.40;99.90
6429;DHT22;3247;48.946;10.220;2023-03-08T05:04:09;0.30;99.90
6429;DHT22;3247;48.946;10.220;2023-03-08T05:06:34;0.40;99.90
6429;DHT22;3247;48.946;10.220;2023-03-08T05:08:59;0.40;99.90
6429;DHT22;3247;48.946;10.220;2023-03-08T05:11:26;0.30;99.90
6429;DHT22;3247;48.946;10.220;2023-03-08T05:13:52;0.30;99.90
6429;DHT22;3247;48.946;10.220;2023-03-08T05:16:19;0.60;99.90
6429;DHT22;3247;48.946;10.220;2023-03-08T05:18:44;0.30;99.90
6429;DHT22;3247;48.946;10.220;2023-03-08T05:21:11;0.30;99.90
6429;DHT22;3247;48.946;10.220;2023-03-08T05:23:37;0.30;99.90
6429;DHT22;3247;48.946;10.220;2023-03-08T05:26:03;0.30;99.90
6429;DHT22;3247;48.946;10.220;2023-03-08T05:28:30;0.30;99.90
6429;DHT22;3247;48.946;10.220;2023-03-08T05:33:37;-0.40;99.90
6429;DHT22;3247;48.946;10.220;2023-03-08T05:36:03;0.40;99.90
6429;DHT22;3247;48.946;10.220;2023-03-08T05:38:29;0.40;99.90
6429;DHT22;3247;48.946;10.220;2023-03-08T05:40:58;0.40;99.90
6429;DHT22;3247;48.946;10.220;2023-03-08T05:43:23;0.40;99.90
6429;DHT22;3247;48.946;10.220;2023-03-08T05:48:44;0.50;99.90
6429;DHT22;3247;48.946;10.220;2023-03-08T05:51:13;0.40;99.90
6429;DHT22;3247;48.946;10.220;2023-03-08T05:53:39;0.40;99.90
6429;DHT22;3247;48.946;10.220;2023-03-08T05:56:06;0.40;99.90
6429;DHT22;3247;48.946;10.220;2023-03-08T05:58:35;0.40;99.90
6429;DHT22;3247;48.946;10.220;2023-03-08T06:01:07;0.40;99.90
6429;DHT22;3247;48.946;10.220;2023-03-08T06:03:33;0.40;99.90
6429;DHT22;3247;48.946;10.220;2023-03-08T06:05:58;0.50;99.90
6429;DHT22;3247;48.946;10.220;2023-03-08T06:08:24;0.50;99.90
6429;DHT22;3247;48.946;10.220;2023-03-08T06:10:49;0.50;99.90
6429;DHT22;3247;48.946;10.220;2023-03-08T06:13:15;0.50;99.90
6429;DHT22;3247;48.946;10.220;2023-03-08T06:15:40;0.60;99.90
6429;DHT22;3247;48.946;10.220;2023-03-08T06:18:06;0.60;99.90
6429;DHT22;3247;48.946;10.220;2023-03-08T06:20:31;0.70;99.90
6429;DHT22;3247;48.946;10.220;2023-03-08T06:22:57;0.80;99.90
6429;DHT22;3247;48.946;10.220;2023-03-08T06:25:22;1.40;99.90
6429;DHT22;3247;48.946;10.220;2023-03-08T06:27:48;0.90;99.90
6429;DHT22;3247;48.946;10.220;2023-03-08T06:30:13;1.00;99.90
6429;DHT22;3247;48.946;10.220;2023-03-08T06:32:39;1.10;99.90
6429;DHT22;3247;48.946;10.220;2023-03-08T06:35:04;1.10;99.90
6429;DHT22;3247;48.946;10.220;2023-03-08T06:37:33;1.20;99.90
6429;DHT22;3247;48.946;10.220;2023-03-08T06:39:59;1.30;99.90
6429;DHT22;3247;48.946;10.220;2023-03-08T06:42:26;1.40;99.90
6429;DHT22;3247;48.946;10.220;2023-03-08T06:44:52;1.40;99.90
6429;DHT22;3247;48.946;10.220;2023-03-08T06:47:17;1.50;99.90
6429;DHT22;3247;48.946;10.220;2023-03-08T06:49:43;1.50;99.90
6429;DHT22;3247;48.946;10.220;2023-03-08T06:52:08;1.60;99.90
6429;DHT22;3247;48.946;10.220;2023-03-08T06:54:34;1.60;99.90
6429;DHT22;3247;48.946;10.220;2023-03-08T06:56:59;1.70;99.90
6429;DHT22;3247;48.946;10.220;2023-03-08T06:59:25;1.80;99.90
6429;DHT22;3247;48.946;10.220;2023-03-08T07:01:50;1.90;99.90
6429;DHT22;3247;48.946;10.220;2023-03-08T07:04:16;2.00;99.90
6429;DHT22;3247;48.946;10.220;2023-03-08T07:06:43;2.10;99.90
6429;DHT22;3247;48.946;10.220;2023-03-08T07:09:08;2.20;99.90
6429;DHT22;3247;48.946;10.220;2023-03-08T07:11:34;2.20;99.90
6429;DHT22;3247;48.946;10.220;2023-03-08T07:13:59;2.20;99.90
6429;DHT22;3247;48.946;10.220;2023-03-08T07:16:24;2.20;99.90
6429;DHT22;3247;48.946;10.220;2023-03-08T07:18:50;2.80;99.90
6429;DHT22;3247;48.946;10.220;2023-03-08T07:21:15;2.10;99.90
6429;DHT22;3247;48.946;10.220;2023-03-08T07:23:41;2.20;99.90
6429;DHT22;3247;48.946;10.220;2023-03-08T07:26:09;2.20;99.90
6429;DHT22;3247;48.946;10.220;2023-03-08T07:28:34;2.20;99.90
6429;DHT22;3247;48.946;10.220;2023-03-08T07:31:00;2.20;99.90
6429;DHT22;3247;48.946;10.220;2023-03-08T07:33:25;2.20;99.90
6429;DHT22;3247;48.946;10.220;2023-03-08T07:35:51;2.20;99.90
6429;DHT22;3247;48.946;10.220;2023-03-08T07:38:16;2.30;99.90
6429;DHT22;3247;48.946;10.220;2023-03-08T07:40:42;2.30;99.90
6429;DHT22;3247;48.946;10.220;2023-03-08T07:43:08;2.30;99.90
6429;DHT22;3247;48.946;10.220;2023-03-08T07:45:33;2.30;99.90
6429;DHT22;3247;48.946;10.220;2023-03-08T07:47:59;2.40;99.90
6429;DHT22;3247;48.946;10.220;2023-03-08T07:50:25;2.50;99.90
6429;DHT22;3247;48.946;10.220;2023-03-08T07:52:50;2.50;99.90
6429;DHT22;3247;48.946;10.220;2023-03-08T07:55:16;2.60;99.90
6429;DHT22;3247;48.946;10.220;2023-03-08T07:57:41;2.50;99.90
6429;DHT22;3247;48.946;10.220;2023-03-08T08:00:07;2.40;99.90
6429;DHT22;3247;48.946;10.220;2023-03-08T08:02:34;2.30;99.90
6429;DHT22;3247;48.946;10.220;2023-03-08T08:05:00;2.30;99.90
6429;DHT22;3247;48.946;10.220;2023-03-08T08:07:25;2.20;99.90
6429;DHT22;3247;48.946;10.220;2023-03-08T08:09:51;2.20;99.90
6429;DHT22;3247;48.946;10.220;2023-03-08T08:12:17;2.20;99.90
6429;DHT22;3247;48.946;10.220;2023-03-08T08:14:43;2.20;99.90
6429;DHT22;3247;48.946;10.220;2023-03-08T08:17:08;2.20;99.90
6429;DHT22;3247;48.946;10.220;2023-03-08T08:19:34;2.20;99.90
6429;DHT22;3247;48.946;10.220;2023-03-08T08:22:00;1.90;99.90
6429;DHT22;3247;48.946;10.220;2023-03-08T08:24:26;2.20;99.90
6429;DHT22;3247;48.946;10.220;2023-03-08T08:26:52;2.20;99.90
6429;DHT22;3247;48.946;10.220;2023-03-08T08:29:17;2.30;99.90
6429;DHT22;3247;48.946;10.220;2023-03-08T08:31:43;2.30;99.90
6429;DHT22;3247;48.946;10.220;2023-03-08T08:34:09;2.30;99.90
6429;DHT22;3247;48.946;10.220;2023-03-08T08:36:34;2.30;99.90
6429;DHT22;3247;48.946;10.220;2023-03-08T08:39:00;2.30;99.90
6429;DHT22;3247;48.946;10.220;2023-03-08T08:41:25;2.30;99.90
6429;DHT22;3247;48.946;10.220;2023-03-08T08:43:52;2.40;99.90
6429;DHT22;3247;48.946;10.220;2023-03-08T08:46:21;2.30;99.90
6429;DHT22;3247;48.946;10.220;2023-03-08T08:48:46;2.30;99.90
6429;DHT22;3247;48.946;10.220;2023-03-08T08:51:17;2.20;99.90
6429;DHT22;3247;48.946;10.220;2023-03-08T08:53:42;2.20;99.90
6429;DHT22;3247;48.946;10.220;2023-03-08T08:56:12;2.10;99.90
6429;DHT22;3247;48.946;10.220;2023-03-08T08:58:38;2.10;99.90
6429;DHT22;3247;48.946;10.220;2023-03-08T09:01:03;2.00;99.90
6429;DHT22;3247;48.946;10.220;2023-03-08T09:03:29;2.00;99.90
6429;DHT22;3247;48.946;10.220;2023-03-08T09:05:56;2.00;99.90
6429;DHT22;3247;48.946;10.220;2023-03-08T09:08:22;2.10;99.90
6429;DHT22;3247;48.946;10.220;2023-03-08T09:10:47;2.20;99.90
6429;DHT22;3247;48.946;10.220;2023-03-08T09:13:12;2.20;99.90
6429;DHT22;3247;48.946;10.220;2023-03-08T09:15:38;2.20;99.90
6429;DHT22;3247;48.946;10.220;2023-03-08T09:18:03;2.20;99.90
6429;DHT22;3247;48.946;10.220;2023-03-08T09:20:29;2.10;99.90
6429;DHT22;3247;48.946;10.220;2023-03-08T09:22:55;2.10;99.90
6429;DHT22;3247;48.946;10.220;2023-03-08T09:25:20;2.10;99.90
6429;DHT22;3247;48.946;10.220;2023-03-08T09:27:48;2.10;99.90
6429;DHT22;3247;48.946;10.220;2023-03-08T09:30:14;2.10;99.90
6429;DHT22;3247;48.946;10.220;2023-03-08T09:32:40;2.20;99.90
6429;DHT22;3247;48.946;10.220;2023-03-08T09:35:05;1.60;99.90
6429;DHT22;3247;48.946;10.220;2023-03-08T09:37:31;2.40;99.90
6429;DHT22;3247;48.946;10.220;2023-03-08T09:39:57;2.40;99.90
6429;DHT22;3247;48.946;10.220;2023-03-08T09:42:23;2.40;99.90
6429;DHT22;3247;48.946;10.220;2023-03-08T09:44:56;2.50;99.90
6429;DHT22;3247;48.946;10.220;2023-03-08T09:55:07;2.60;99.90
6429;DHT22;3247;48.946;10.220;2023-03-08T09:57:35;2.90;99.90
6429;DHT22;3247;48.946;10.220;2023-03-08T10:00:18;3.00;99.90
6429;DHT22;3247;48.946;10.220;2023-03-08T10:02:48;3.00;99.90
6429;DHT22;3247;48.946;10.220;2023-03-08T10:05:23;3.10;99.90
6429;DHT22;3247;48.946;10.220;2023-03-08T10:10:27;3.20;99.90
6429;DHT22;3247;48.946;10.220;2023-03-08T10:13:05;3.20;99.90
6429;DHT22;3247;48.946;10.220;2023-03-08T10:15:32;3.30;99.90
6429;DHT22;3247;48.946;10.220;2023-03-08T10:18:02;3.40;99.90
6429;DHT22;3247;48.946;10.220;2023-03-08T10:20:43;3.40;99.90
6429;DHT22;3247;48.946;10.220;2023-03-08T10:23:17;3.40;99.90
6429;DHT22;3247;48.946;10.220;2023-03-08T10:25:43;3.50;99.90
6429;DHT22;3247;48.946;10.220;2023-03-08T10:28:13;4.00;99.90
6429;DHT22;3247;48.946;10.220;2023-03-08T10:33:15;3.60;99.90
6429;DHT22;3247;48.946;10.220;2023-03-08T10:38:32;3.70;99.90
6429;DHT22;3247;48.946;10.220;2023-03-08T10:40:59;3.70;99.90
6429;DHT22;3247;48.946;10.220;2023-03-08T10:43:28;3.70;99.90
6429;DHT22;3247;48.946;10.220;2023-03-08T10:45:56;3.70;99.90
6429;DHT22;3247;48.946;10.220;2023-03-08T10:48:22;3.90;99.90
6429;DHT22;3247;48.946;10.220;2023-03-08T10:50:56;4.00;99.90
6429;DHT22;3247;48.946;10.220;2023-03-08T10:53:21;4.10;99.90
6429;DHT22;3247;48.946;10.220;2023-03-08T10:55:49;4.10;99.90
6429;DHT22;3247;48.946;10.220;2023-03-08T10:58:25;4.20;99.90
6429;DHT22;3247;48.946;10.220;2023-03-08T11:00:52;4.20;99.90
6429;DHT22;3247;48.946;10.220;2023-03-08T11:03:18;4.30;99.90
6429;DHT22;3247;48.946;10.220;2023-03-08T11:08:17;4.50;99.90
6429;DHT22;3247;48.946;10.220;2023-03-08T11:10:44;4.60;99.90
6429;DHT22;3247;48.946;10.220;2023-03-08T11:13:20;4.70;99.90
6429;DHT22;3247;48.946;10.220;2023-03-08T11:15:49;4.80;99.90
6429;DHT22;3247;48.946;10.220;2023-03-08T11:20:54;5.10;99.90
6429;DHT22;3247;48.946;10.220;2023-03-08T11:23:22;5.10;99.90
6429;DHT22;3247;48.946;10.220;2023-03-08T11:25:55;5.20;99.90
6429;DHT22;3247;48.946;10.220;2023-03-08T11:28:31;5.30;99.90
6429;DHT22;3247;48.946;10.220;2023-03-08T11:31:07;5.40;99.90
6429;DHT22;3247;48.946;10.220;2023-03-08T11:36:04;5.70;99.90
6429;DHT22;3247;48.946;10.220;2023-03-08T11:38:31;5.90;99.90
6429;DHT22;3247;48.946;10.220;2023-03-08T11:43:30;6.40;99.90
6429;DHT22;3247;48.946;10.220;2023-03-08T11:46:00;6.60;99.90
6429;DHT22;3247;48.946;10.220;2023-03-08T11:48:34;6.80;99.90
6429;DHT22;3247;48.946;10.220;2023-03-08T11:51:15;6.90;99.90
6429;DHT22;3247;48.946;10.220;2023-03-08T11:53:46;7.10;99.90
6429;DHT22;3247;48.946;10.220;2023-03-08T11:56:19;7.20;99.90
6429;DHT22;3247;48.946;10.220;2023-03-08T11:58:53;7.40;99.90
6429;DHT22;3247;48.946;10.220;2023-03-08T12:01:21;7.40;99.90
6429;DHT22;3247;48.946;10.220;2023-03-08T12:03:49;7.40;99.90
6429;DHT22;3247;48.946;10.220;2023-03-08T12:06:22;7.50;99.90
6429;DHT22;3247;48.946;10.220;2023-03-08T12:08:55;7.60;99.90
6429;DHT22;3247;48.946;10.220;2023-03-08T12:11:27;7.60;99.90
6429;DHT22;3247;48.946;10.220;2023-03-08T12:14:02;7.70;99.90
6429;DHT22;3247;48.946;10.220;2023-03-08T12:16:37;7.80;99.90
6429;DHT22;3247;48.946;10.220;2023-03-08T12:19:17;7.80;99.90
6429;DHT22;3247;48.946;10.220;2023-03-08T12:29:25;8.00;99.90
6429;DHT22;3247;48.946;10.220;2023-03-08T12:31:53;8.00;99.90
6429;DHT22;3247;48.946;10.220;2023-03-08T12:34:26;8.80;99.90
6429;DHT22;3247;48.946;10.220;2023-03-08T12:36:52;8.30;99.90
6429;DHT22;3247;48.946;10.220;2023-03-08T12:39:28;8.40;99.90
6429;DHT22;3247;48.946;10.220;2023-03-08T12:44:23;8.50;99.90
6429;DHT22;3247;48.946;10.220;2023-03-08T12:46:52;8.60;99.90
6429;DHT22;3247;48.946;10.220;2023-03-08T12:49:24;8.60;99.90
6429;DHT22;3247;48.946;10.220;2023-03-08T12:52:02;8.60;99.90
6429;DHT22;3247;48.946;10.220;2023-03-08T12:54:29;8.70;99.90
6429;DHT22;3247;48.946;10.220;2023-03-08T12:56:55;8.80;99.90
6429;DHT22;3247;48.946;10.220;2023-03-08T12:59:24;8.80;99.90
6429;DHT22;3247;48.946;10.220;2023-03-08T13:09:35;8.90;99.90
6429;DHT22;3247;48.946;10.220;2023-03-08T13:14:40;9.00;99.90
6429;DHT22;3247;48.946;10.220;2023-03-08T13:19:50;9.00;99.90
6429;DHT22;3247;48.946;10.220;2023-03-08T13:22:39;9.00;99.90
6429;DHT22;3247;48.946;10.220;2023-03-08T13:27:54;9.10;99.90
6429;DHT22;3247;48.946;10.220;2023-03-08T13:30:32;9.10;99.90
6429;DHT22;3247;48.946;10.220;2023-03-08T13:32:58;9.20;99.90
6429;DHT22;3247;48.946;10.220;2023-03-08T13:35:26;9.30;99.90
6429;DHT22;3247;48.946;10.220;2023-03-08T13:37:56;9.30;99.90
6429;DHT22;3247;48.946;10.220;2023-03-08T13:40:23;9.40;99.90
6429;DHT22;3247;48.946;10.220;2023-03-08T13:42:54;9.40;99.90
6429;DHT22;3247;48.946;10.220;2023-03-08T13:45:19;9.40;99.90
6429;DHT22;3247;48.946;10.220;2023-03-08T13:47:45;9.40;99.90
6429;DHT22;3247;48.946;10.220;2023-03-08T13:50:33;9.50;99.90
6429;DHT22;3247;48.946;10.220;2023-03-08T13:52:59;9.40;99.90
6429;DHT22;3247;48.946;10.220;2023-03-08T13:55:28;9.50;99.90
6429;DHT22;3247;48.946;10.220;2023-03-08T13:57:57;9.60;99.90
6429;DHT22;3247;48.946;10.220;2023-03-08T14:00:25;9.70;99.90
6429;DHT22;3247;48.946;10.220;2023-03-08T14:02:50;9.70;99.90
6429;DHT22;3247;48.946;10.220;2023-03-08T14:05:26;9.80;99.90
6429;DHT22;3247;48.946;10.220;2023-03-08T14:08:00;9.70;99.90
6429;DHT22;3247;48.946;10.220;2023-03-08T14:10:29;9.80;99.90
6429;DHT22;3247;48.946;10.220;2023-03-08T14:12:55;9.90;99.90
6429;DHT22;3247;48.946;10.220;2023-03-08T14:15:23;9.90;99.90
6429;DHT22;3247;48.946;10.220;2023-03-08T14:17:49;9.90;99.90
6429;DHT22;3247;48.946;10.220;2023-03-08T14:20:21;10.00;99.90
6429;DHT22;3247;48.946;10.220;2023-03-08T14:22:47;10.00;99.90
6429;DHT22;3247;48.946;10.220;2023-03-08T14:27:46;10.10;99.90
6429;DHT22;3247;48.946;10.220;2023-03-08T14:30:16;10.20;99.90
6429;DHT22;3247;48.946;10.220;2023-03-08T14:35:37;10.30;99.90
6429;DHT22;3247;48.946;10.220;2023-03-08T14:38:21;10.50;99.90
6429;DHT22;3247;48.946;10.220;2023-03-08T14:40:47;10.60;99.90
6429;DHT22;3247;48.946;10.220;2023-03-08T14:43:23;10.70;99.90
6429;DHT22;3247;48.946;10.220;2023-03-08T14:45:54;10.70;99.90
6429;DHT22;3247;48.946;10.220;2023-03-08T14:48:21;10.80;99.90
6429;DHT22;3247;48.946;10.220;2023-03-08T14:50:55;10.70;99.90
6429;DHT22;3247;48.946;10.220;2023-03-08T14:55:51;10.70;99.90
6429;DHT22;3247;48.946;10.220;2023-03-08T14:58:16;10.60;99.90
6429;DHT22;3247;48.946;10.220;2023-03-08T15:00:49;11.10;99.90
6429;DHT22;3247;48.946;10.220;2023-03-08T15:03:14;10.50;99.90
6429;DHT22;3247;48.946;10.220;2023-03-08T15:05:40;10.50;99.90
6429;DHT22;3247;48.946;10.220;2023-03-08T15:08:09;10.40;99.90
6429;DHT22;3247;48.946;10.220;2023-03-08T15:10:37;10.30;99.90
6429;DHT22;3247;48.946;10.220;2023-03-08T15:13:04;10.30;99.90
6429;DHT22;3247;48.946;10.220;2023-03-08T15:15:29;10.30;99.90
6429;DHT22;3247;48.946;10.220;2023-03-08T15:17:55;10.10;99.90
6429;DHT22;3247;48.946;10.220;2023-03-08T15:20:24;10.70;99.90
6429;DHT22;3247;48.946;10.220;2023-03-08T15:22:51;9.90;99.90
6429;DHT22;3247;48.946;10.220;2023-03-08T15:25:24;9.90;99.90
6429;DHT22;3247;48.946;10.220;2023-03-08T15:27:50;9.70;99.90
6429;DHT22;3247;48.946;10.220;2023-03-08T15:30:16;9.70;99.90
6429;DHT22;3247;48.946;10.220;2023-03-08T15:32:42;9.60;99.90
6429;DHT22;3247;48.946;10.220;2023-03-08T15:35:08;9.50;99.90
6429;DHT22;3247;48.946;10.220;2023-03-08T15:37:33;9.50;99.90
6429;DHT22;3247;48.946;10.220;2023-03-08T15:39:59;9.50;99.90
6429;DHT22;3247;48.946;10.220;2023-03-08T15:42:24;9.50;99.90
6429;DHT22;3247;48.946;10.220;2023-03-08T15:44:51;9.50;99.90
6429;DHT22;3247;48.946;10.220;2023-03-08T15:47:17;9.40;99.90
6429;DHT22;3247;48.946;10.220;2023-03-08T15:49:42;9.40;99.90
6429;DHT22;3247;48.946;10.220;2023-03-08T15:52:17;9.50;99.90
6429;DHT22;3247;48.946;10.220;2023-03-08T15:54:43;9.40;99.90
6429;DHT22;3247;48.946;10.220;2023-03-08T15:57:12;9.50;99.90
6429;DHT22;3247;48.946;10.220;2023-03-08T15:59:39;9.50;99.90
6429;DHT22;3247;48.946;10.220;2023-03-08T16:02:05;9.40;99.90
6429;DHT22;3247;48.946;10.220;2023-03-08T16:04:31;9.40;99.90
6429;DHT22;3247;48.946;10.220;2023-03-08T16:06:56;9.50;99.90
6429;DHT22;3247;48.946;10.220;2023-03-08T16:11:47;9.50;99.90
6429;DHT22;3247;48.946;10.220;2023-03-08T16:14:12;9.40;99.90
6429;DHT22;3247;48.946;10.220;2023-03-08T16:16:44;9.40;99.90
6429;DHT22;3247;48.946;10.220;2023-03-08T16:19:11;9.40;99.90
6429;DHT22;3247;48.946;10.220;2023-03-08T16:21:51;9.40;99.90
6429;DHT22;3247;48.946;10.220;2023-03-08T16:24:17;9.40;99.90
6429;DHT22;3247;48.946;10.220;2023-03-08T16:26:43;9.40;99.90
6429;DHT22;3247;48.946;10.220;2023-03-08T16:29:08;9.40;99.90
6429;DHT22;3247;48.946;10.220;2023-03-08T16:31:34;9.40;99.90
6429;DHT22;3247;48.946;10.220;2023-03-08T16:34:03;9.40;99.90
6429;DHT22;3247;48.946;10.220;2023-03-08T16:36:29;9.40;99.90
6429;DHT22;3247;48.946;10.220;2023-03-08T16:38:54;9.40;99.90
6429;DHT22;3247;48.946;10.220;2023-03-08T16:41:20;9.40;99.90
6429;DHT22;3247;48.946;10.220;2023-03-08T16:43:48;9.40;99.90
6429;DHT22;3247;48.946;10.220;2023-03-08T16:46:15;9.40;99.90
6429;DHT22;3247;48.946;10.220;2023-03-08T16:48:40;9.30;99.90
6429;DHT22;3247;48.946;10.220;2023-03-08T16:51:19;9.30;99.90
6429;DHT22;3247;48.946;10.220;2023-03-08T16:53:46;9.30;99.90
6429;DHT22;3247;48.946;10.220;2023-03-08T16:58:43;9.20;99.90
6429;DHT22;3247;48.946;10.220;2023-03-08T17:01:12;9.20;99.90
6429;DHT22;3247;48.946;10.220;2023-03-08T17:03:37;9.20;99.90
6429;DHT22;3247;48.946;10.220;2023-03-08T17:06:06;9.30;99.90
6429;DHT22;3247;48.946;10.220;2023-03-08T17:08:31;9.10;99.90
6429;DHT22;3247;48.946;10.220;2023-03-08T17:10:57;9.10;99.90
6429;DHT22;3247;48.946;10.220;2023-03-08T17:13:22;9.20;99.90